• Join FlightAware (Why Join?)
  • Login
  • US Flag 
03:37PM EDT


 

Airport Tracker/Info


-or-


 

Live Flight TrackerFlight Track Log ✈ SKQ225 ✈ 04-May-2013 ✈ KOSU - KSDF

Flight Track Log - Related Links

Times and Time Zones

All times are in EDT time to prevent confusion due to time zone crossing. See the SKQ225 flight status page for this flight to view local times or setup timezone preferences in your user account.

Time Position Orientation Groundspeed Altitude Reporting Facility
EDT Latitude Longitude Course Direction KTS MPH feet Rate Location/Type
01:45AM 40.0697 -83.0594 249° West 107 123 1,800  Level Indianapolis Center
01:46AM 40.0589 -83.0964 249° West 155 178 2,100 540 Climbing Indianapolis Center
01:47AM 40.0306 -83.1422 231° Southwest 161 185 2,800 780 Climbing Indianapolis Center
01:48AM 40.0050 -83.1800 229° Southwest 139 160 3,700 780 Climbing Indianapolis Center
01:49AM 39.9792 -83.2144 226° Southwest 144 166 4,500 780 Climbing Indianapolis Center
01:50AM 39.9539 -83.2514 228° Southwest 140 161 5,400 780 Climbing Indianapolis Center
01:51AM 39.9267 -83.2903 228° Southwest 141 162 6,100 720 Climbing Indianapolis Center
01:52AM 39.8978 -83.3322 228° Southwest 149 171 6,900 780 Climbing Indianapolis Center
01:53AM 39.8686 -83.3750 228° Southwest 155 178 7,700 480 Climbing Indianapolis Center
01:54AM 39.8356 -83.4219 227° Southwest 168 193 7,900 60 Climbing Indianapolis Center
01:55AM 39.7972 -83.4794 229° Southwest 196 226 7,900  Level Indianapolis Center
01:56AM 39.7603 -83.5331 228° Southwest 197 227 7,900  Level Indianapolis Center
01:57AM 39.7233 -83.5861 228° Southwest 195 224 7,900  Level Indianapolis Center
01:58AM 39.6864 -83.6392 228° Southwest 196 226 7,900  Level Indianapolis Center
01:59AM 39.6489 -83.6931 228° Southwest 199 229 7,900  Level Indianapolis Center
02:00AM 39.6117 -83.7456 227° Southwest 197 227 7,900  Level Indianapolis Center
02:01AM 39.5808 -83.7886 227° Southwest 194 223 7,900  Level Indianapolis Center
02:02AM 39.5436 -83.8417 228° Southwest 196 226 7,900  Level Indianapolis Center
02:03AM 39.5078 -83.8944 229° Southwest 194 223 7,900  Level Indianapolis Center
02:04AM 39.4706 -83.9475 228° Southwest 195 224 7,900  Level Indianapolis Center
02:05AM 39.4333 -83.9997 227° Southwest 196 226 7,900  Level Indianapolis Center
02:06AM 39.3967 -84.0517 228° Southwest 195 224 7,900  Level Indianapolis Center
02:07AM 39.3589 -84.1044 227° Southwest 197 227 7,900  Level Indianapolis Center
02:08AM 39.3219 -84.1575 228° Southwest 197 227 7,900  Level Indianapolis Center
02:09AM 39.2850 -84.2108 228° Southwest 197 227 7,900  Level Indianapolis Center
02:10AM 39.2478 -84.2625 227° Southwest 196 226 7,900  Level Indianapolis Center
02:11AM 39.2100 -84.3147 227° Southwest 196 226 7,900  Level Indianapolis Center
02:12AM 39.1728 -84.3669 227° Southwest 197 227 7,900  Level Indianapolis Center
02:13AM 39.1369 -84.4181 228° Southwest 190 219 7,900  Level Indianapolis Center
02:14AM 39.1000 -84.4667 226° Southwest 188 216 7,900  Level Cincinnati TRACON
02:15AM 39.0667 -84.5167 229° Southwest 189 217 7,900  Level Cincinnati TRACON
02:16AM 39.0333 -84.5667 229° Southwest 188 216 7,900  Level Cincinnati TRACON
02:17AM 39.0000 -84.6167 229° Southwest 187 215 7,900  Level Cincinnati TRACON
02:18AM 38.9667 -84.6667 229° Southwest 188 216 7,900  Level Cincinnati TRACON
02:19AM 38.9167 -84.7167 218° Southwest 189 217 7,900  Level Cincinnati TRACON
02:20AM 38.8833 -84.7667 229° Southwest 189 217 7,900  Level Cincinnati TRACON
02:21AM 38.8500 -84.8167 229° Southwest 191 220 7,900  Level Cincinnati TRACON
02:21AM 38.8422 -84.8272 227° Southwest 191 220 7,900  Level Indianapolis Center
02:22AM 38.8064 -84.8764 227° Southwest 190 219 7,900  Level Indianapolis Center
02:23AM 38.7717 -84.9250 228° Southwest 187 215 7,900  Level Indianapolis Center
02:24AM 38.7372 -84.9739 228° Southwest 185 213 7,900  Level Indianapolis Center
02:25AM 38.7017 -85.0222 227° Southwest 186 214 7,900  Level Indianapolis Center
02:26AM 38.6658 -85.0706 226° Southwest 185 213 7,900 -60 Level Indianapolis Center
02:27AM 38.6289 -85.1206 227° Southwest 188 216 7,800 -120 Descending Indianapolis Center
02:28AM 38.5942 -85.1686 227° Southwest 186 214 7,700 -360 Descending Indianapolis Center
02:29AM 38.5581 -85.2169 226° Southwest 194 223 7,100 -540 Descending Indianapolis Center
02:30AM 38.5203 -85.2694 227° Southwest 199 229 6,700 -360 Descending Indianapolis Center
02:31AM 38.4811 -85.3194 225° Southwest 199 229 6,400 -360 Descending Indianapolis Center
02:32AM 38.4442 -85.3706 227° Southwest 197 227 6,000 -420 Descending Indianapolis Center
02:33AM 38.4103 -85.4183 228° Southwest 189 217 5,600 -480 Descending Indianapolis Center
02:34AM 38.3747 -85.4661 226° Southwest 185 213 5,100 -540 Descending Indianapolis Center
02:35AM 38.3394 -85.5139 227° Southwest 185 213 4,600 -900 Descending Indianapolis Center
02:36AM 38.3100 -85.5669 235° Southwest 184 212 3,400 -780 Descending Indianapolis Center
02:37AM 38.2783 -85.6189 232° Southwest 185 213 3,100 -600 Descending Indianapolis Center
02:39AM 38.2333 -85.7000 235° Southwest 168 193 1,900 -780 Descending Louisville TRACON
02:41AM 38.1667 -85.7333 230° Southwest  Level FlightAware Approximate
02:48AM 38.1741 -85.7365 230° Southwest  Level Estimated